sensor_id;sensor_type;location;lat;lon;timestamp;temperature;humidity
41720;DHT22;27405;53.316;-6.294;2023-08-17T00:02:15;15.20;99.90
41720;DHT22;27405;53.316;-6.294;2023-08-17T00:04:42;15.10;99.90
41720;DHT22;27405;53.316;-6.294;2023-08-17T00:07:08;15.20;99.90
41720;DHT22;27405;53.316;-6.294;2023-08-17T00:09:33;15.10;99.90
41720;DHT22;27405;53.316;-6.294;2023-08-17T00:11:59;15.10;99.90
41720;DHT22;27405;53.316;-6.294;2023-08-17T00:14:25;15.10;99.90
41720;DHT22;27405;53.316;-6.294;2023-08-17T00:16:52;15.10;99.90
41720;DHT22;27405;53.316;-6.294;2023-08-17T00:19:18;15.10;99.90
41720;DHT22;27405;53.316;-6.294;2023-08-17T00:21:47;15.00;99.90
41720;DHT22;27405;53.316;-6.294;2023-08-17T00:24:13;15.00;99.90
41720;DHT22;27405;53.316;-6.294;2023-08-17T00:26:39;15.00;99.90
41720;DHT22;27405;53.316;-6.294;2023-08-17T00:29:05;15.00;99.90
41720;DHT22;27405;53.316;-6.294;2023-08-17T00:31:31;15.00;99.90
41720;DHT22;27405;53.316;-6.294;2023-08-17T00:33:57;15.00;99.90
41720;DHT22;27405;53.316;-6.294;2023-08-17T00:36:23;15.00;99.90
41720;DHT22;27405;53.316;-6.294;2023-08-17T00:38:49;14.90;99.90
41720;DHT22;27405;53.316;-6.294;2023-08-17T00:41:15;14.90;99.90
41720;DHT22;27405;53.316;-6.294;2023-08-17T00:43:41;14.90;99.90
41720;DHT22;27405;53.316;-6.294;2023-08-17T00:46:07;14.90;99.90
41720;DHT22;27405;53.316;-6.294;2023-08-17T00:48:34;14.90;99.90
41720;DHT22;27405;53.316;-6.294;2023-08-17T00:51:00;14.80;99.90
41720;DHT22;27405;53.316;-6.294;2023-08-17T00:53:27;14.90;99.90
41720;DHT22;27405;53.316;-6.294;2023-08-17T00:55:55;14.90;99.90
41720;DHT22;27405;53.316;-6.294;2023-08-17T00:58:22;14.90;99.90
41720;DHT22;27405;53.316;-6.294;2023-08-17T01:00:48;14.80;99.90
41720;DHT22;27405;53.316;-6.294;2023-08-17T01:03:17;14.80;99.90
41720;DHT22;27405;53.316;-6.294;2023-08-17T01:05:43;14.80;99.90
41720;DHT22;27405;53.316;-6.294;2023-08-17T01:08:09;14.80;99.90
41720;DHT22;27405;53.316;-6.294;2023-08-17T01:16:50;14.70;99.90
41720;DHT22;27405;53.316;-6.294;2023-08-17T01:19:25;14.70;99.90
41720;DHT22;27405;53.316;-6.294;2023-08-17T01:21:57;14.70;99.90
41720;DHT22;27405;53.316;-6.294;2023-08-17T01:24:23;14.70;99.90
41720;DHT22;27405;53.316;-6.294;2023-08-17T01:26:49;14.70;99.90
41720;DHT22;27405;53.316;-6.294;2023-08-17T01:29:15;14.70;99.90
41720;DHT22;27405;53.316;-6.294;2023-08-17T01:34:20;14.60;99.90
41720;DHT22;27405;53.316;-6.294;2023-08-17T01:36:58;14.60;99.90
41720;DHT22;27405;53.316;-6.294;2023-08-17T01:42:49;14.50;99.90
41720;DHT22;27405;53.316;-6.294;2023-08-17T01:45:16;14.50;99.90
41720;DHT22;27405;53.316;-6.294;2023-08-17T01:47:42;14.50;99.90
41720;DHT22;27405;53.316;-6.294;2023-08-17T01:50:08;14.50;99.90
41720;DHT22;27405;53.316;-6.294;2023-08-17T01:52:34;14.50;99.90
41720;DHT22;27405;53.316;-6.294;2023-08-17T01:55:01;14.50;99.90
41720;DHT22;27405;53.316;-6.294;2023-08-17T01:57:27;14.50;99.90
41720;DHT22;27405;53.316;-6.294;2023-08-17T01:59:53;14.50;99.90
41720;DHT22;27405;53.316;-6.294;2023-08-17T02:02:19;14.40;99.90
41720;DHT22;27405;53.316;-6.294;2023-08-17T02:08:09;14.40;99.90
41720;DHT22;27405;53.316;-6.294;2023-08-17T02:13:57;14.40;99.90
41720;DHT22;27405;53.316;-6.294;2023-08-17T02:16:23;14.50;99.90
41720;DHT22;27405;53.316;-6.294;2023-08-17T02:18:49;14.40;99.90
41720;DHT22;27405;53.316;-6.294;2023-08-17T02:21:15;14.40;99.90
41720;DHT22;27405;53.316;-6.294;2023-08-17T02:23:40;14.40;99.90
41720;DHT22;27405;53.316;-6.294;2023-08-17T02:26:06;14.50;99.90
41720;DHT22;27405;53.316;-6.294;2023-08-17T02:28:32;14.40;99.90
41720;DHT22;27405;53.316;-6.294;2023-08-17T02:30:59;14.40;99.90
41720;DHT22;27405;53.316;-6.294;2023-08-17T02:33:25;14.40;99.90
41720;DHT22;27405;53.316;-6.294;2023-08-17T02:35:51;14.40;99.90
41720;DHT22;27405;53.316;-6.294;2023-08-17T02:38:18;14.40;99.90
41720;DHT22;27405;53.316;-6.294;2023-08-17T02:40:44;14.40;99.90
41720;DHT22;27405;53.316;-6.294;2023-08-17T02:43:10;14.40;99.90
41720;DHT22;27405;53.316;-6.294;2023-08-17T02:45:35;14.40;99.90
41720;DHT22;27405;53.316;-6.294;2023-08-17T02:48:01;14.50;99.90
41720;DHT22;27405;53.316;-6.294;2023-08-17T02:50:28;14.40;99.90
41720;DHT22;27405;53.316;-6.294;2023-08-17T02:52:54;14.50;99.90
41720;DHT22;27405;53.316;-6.294;2023-08-17T02:55:20;14.50;99.90
41720;DHT22;27405;53.316;-6.294;2023-08-17T02:57:46;14.50;99.90
41720;DHT22;27405;53.316;-6.294;2023-08-17T03:00:12;14.50;99.90
41720;DHT22;27405;53.316;-6.294;2023-08-17T03:02:38;14.50;99.90
41720;DHT22;27405;53.316;-6.294;2023-08-17T03:05:04;14.50;99.90
41720;DHT22;27405;53.316;-6.294;2023-08-17T03:07:30;14.50;99.90
41720;DHT22;27405;53.316;-6.294;2023-08-17T03:13:18;14.50;99.90
41720;DHT22;27405;53.316;-6.294;2023-08-17T03:15:44;14.60;99.90
41720;DHT22;27405;53.316;-6.294;2023-08-17T03:18:10;14.60;99.90
41720;DHT22;27405;53.316;-6.294;2023-08-17T03:20:36;14.60;99.90
41720;DHT22;27405;53.316;-6.294;2023-08-17T03:23:02;14.60;99.90
41720;DHT22;27405;53.316;-6.294;2023-08-17T03:25:31;14.60;99.90
41720;DHT22;27405;53.316;-6.294;2023-08-17T03:27:57;14.60;99.90
41720;DHT22;27405;53.316;-6.294;2023-08-17T03:30:23;14.60;99.90
41720;DHT22;27405;53.316;-6.294;2023-08-17T03:32:49;14.50;99.90
41720;DHT22;27405;53.316;-6.294;2023-08-17T03:35:15;14.50;99.90
41720;DHT22;27405;53.316;-6.294;2023-08-17T03:37:41;14.50;99.90
41720;DHT22;27405;53.316;-6.294;2023-08-17T03:40:08;14.50;99.90
41720;DHT22;27405;53.316;-6.294;2023-08-17T03:42:34;14.50;99.90
41720;DHT22;27405;53.316;-6.294;2023-08-17T03:45:00;14.50;99.90
41720;DHT22;27405;53.316;-6.294;2023-08-17T03:47:25;14.50;99.90
41720;DHT22;27405;53.316;-6.294;2023-08-17T03:49:52;14.50;99.90
41720;DHT22;27405;53.316;-6.294;2023-08-17T03:52:18;14.50;99.90
41720;DHT22;27405;53.316;-6.294;2023-08-17T03:54:44;14.40;99.90
41720;DHT22;27405;53.316;-6.294;2023-08-17T04:00:32;14.40;99.90
41720;DHT22;27405;53.316;-6.294;2023-08-17T04:02:58;14.40;99.90
41720;DHT22;27405;53.316;-6.294;2023-08-17T04:05:23;14.40;99.90
41720;DHT22;27405;53.316;-6.294;2023-08-17T04:07:49;14.40;99.90
41720;DHT22;27405;53.316;-6.294;2023-08-17T04:10:15;14.40;99.90
41720;DHT22;27405;53.316;-6.294;2023-08-17T04:12:41;14.40;99.90
41720;DHT22;27405;53.316;-6.294;2023-08-17T04:15:07;14.40;99.90
41720;DHT22;27405;53.316;-6.294;2023-08-17T04:17:34;14.40;99.90
41720;DHT22;27405;53.316;-6.294;2023-08-17T04:20:00;14.40;99.90
41720;DHT22;27405;53.316;-6.294;2023-08-17T04:22:25;14.40;99.90
41720;DHT22;27405;53.316;-6.294;2023-08-17T04:24:51;14.50;99.90
41720;DHT22;27405;53.316;-6.294;2023-08-17T04:27:17;14.50;99.90
41720;DHT22;27405;53.316;-6.294;2023-08-17T04:29:44;14.50;99.90
41720;DHT22;27405;53.316;-6.294;2023-08-17T04:32:14;14.50;99.90
41720;DHT22;27405;53.316;-6.294;2023-08-17T04:34:42;14.50;99.90
41720;DHT22;27405;53.316;-6.294;2023-08-17T04:37:08;14.50;99.90
41720;DHT22;27405;53.316;-6.294;2023-08-17T04:39:34;14.50;99.90
41720;DHT22;27405;53.316;-6.294;2023-08-17T04:42:00;14.50;99.90
41720;DHT22;27405;53.316;-6.294;2023-08-17T04:44:26;14.50;99.90
41720;DHT22;27405;53.316;-6.294;2023-08-17T04:46:52;14.50;99.90
41720;DHT22;27405;53.316;-6.294;2023-08-17T04:49:18;14.50;99.90
41720;DHT22;27405;53.316;-6.294;2023-08-17T04:51:44;14.50;99.90
41720;DHT22;27405;53.316;-6.294;2023-08-17T04:54:10;14.50;99.90
41720;DHT22;27405;53.316;-6.294;2023-08-17T04:56:36;14.50;99.90
41720;DHT22;27405;53.316;-6.294;2023-08-17T04:59:01;14.50;99.90
41720;DHT22;27405;53.316;-6.294;2023-08-17T05:01:27;14.50;99.90
41720;DHT22;27405;53.316;-6.294;2023-08-17T05:03:53;14.40;99.90
41720;DHT22;27405;53.316;-6.294;2023-08-17T05:06:20;14.40;99.90
41720;DHT22;27405;53.316;-6.294;2023-08-17T05:08:46;14.40;99.90
41720;DHT22;27405;53.316;-6.294;2023-08-17T05:11:12;14.40;99.90
41720;DHT22;27405;53.316;-6.294;2023-08-17T05:13:38;14.50;99.90
41720;DHT22;27405;53.316;-6.294;2023-08-17T05:16:04;14.50;99.90
41720;DHT22;27405;53.316;-6.294;2023-08-17T05:18:30;14.40;99.90
41720;DHT22;27405;53.316;-6.294;2023-08-17T05:20:56;14.40;99.90
41720;DHT22;27405;53.316;-6.294;2023-08-17T05:23:22;14.50;99.90
41720;DHT22;27405;53.316;-6.294;2023-08-17T05:25:48;14.50;99.90
41720;DHT22;27405;53.316;-6.294;2023-08-17T05:28:14;14.60;99.90
41720;DHT22;27405;53.316;-6.294;2023-08-17T05:30:40;14.60;99.90
41720;DHT22;27405;53.316;-6.294;2023-08-17T05:33:06;14.60;99.90
41720;DHT22;27405;53.316;-6.294;2023-08-17T05:35:32;14.60;99.90
41720;DHT22;27405;53.316;-6.294;2023-08-17T05:37:58;14.60;99.90
41720;DHT22;27405;53.316;-6.294;2023-08-17T05:40:24;14.60;99.90
41720;DHT22;27405;53.316;-6.294;2023-08-17T05:46:12;14.70;99.90
41720;DHT22;27405;53.316;-6.294;2023-08-17T05:48:38;14.70;99.90
41720;DHT22;27405;53.316;-6.294;2023-08-17T05:51:05;14.80;99.90
41720;DHT22;27405;53.316;-6.294;2023-08-17T05:53:31;14.80;99.90
41720;DHT22;27405;53.316;-6.294;2023-08-17T05:55:57;14.80;99.90
41720;DHT22;27405;53.316;-6.294;2023-08-17T05:58:23;14.80;99.90
41720;DHT22;27405;53.316;-6.294;2023-08-17T06:00:49;14.90;99.90
41720;DHT22;27405;53.316;-6.294;2023-08-17T06:03:15;14.90;99.90
41720;DHT22;27405;53.316;-6.294;2023-08-17T06:05:41;14.90;99.90
41720;DHT22;27405;53.316;-6.294;2023-08-17T06:08:07;15.00;99.90
41720;DHT22;27405;53.316;-6.294;2023-08-17T06:10:33;15.00;99.90
41720;DHT22;27405;53.316;-6.294;2023-08-17T06:13:00;15.10;99.90
41720;DHT22;27405;53.316;-6.294;2023-08-17T06:15:25;15.10;99.90
41720;DHT22;27405;53.316;-6.294;2023-08-17T06:17:52;15.10;99.90
41720;DHT22;27405;53.316;-6.294;2023-08-17T06:20:18;15.20;99.90
41720;DHT22;27405;53.316;-6.294;2023-08-17T06:22:44;15.20;99.90
41720;DHT22;27405;53.316;-6.294;2023-08-17T06:25:10;15.30;99.90
41720;DHT22;27405;53.316;-6.294;2023-08-17T06:27:37;15.30;99.90
41720;DHT22;27405;53.316;-6.294;2023-08-17T06:30:03;15.30;99.90
41720;DHT22;27405;53.316;-6.294;2023-08-17T06:32:30;15.40;99.90
41720;DHT22;27405;53.316;-6.294;2023-08-17T06:34:57;15.40;99.90
41720;DHT22;27405;53.316;-6.294;2023-08-17T06:37:23;15.40;99.90
41720;DHT22;27405;53.316;-6.294;2023-08-17T06:39:49;15.40;99.90
41720;DHT22;27405;53.316;-6.294;2023-08-17T06:42:15;15.50;99.90
41720;DHT22;27405;53.316;-6.294;2023-08-17T06:44:41;15.50;99.90
41720;DHT22;27405;53.316;-6.294;2023-08-17T06:47:07;15.60;99.90
41720;DHT22;27405;53.316;-6.294;2023-08-17T06:49:34;15.60;99.90
41720;DHT22;27405;53.316;-6.294;2023-08-17T06:55:22;15.80;99.90
41720;DHT22;27405;53.316;-6.294;2023-08-17T06:57:48;15.80;99.90
41720;DHT22;27405;53.316;-6.294;2023-08-17T07:00:18;15.90;99.90
41720;DHT22;27405;53.316;-6.294;2023-08-17T07:02:48;15.90;99.90
41720;DHT22;27405;53.316;-6.294;2023-08-17T07:05:17;16.00;99.90
41720;DHT22;27405;53.316;-6.294;2023-08-17T07:07:46;16.00;99.90
41720;DHT22;27405;53.316;-6.294;2023-08-17T07:10:12;16.10;99.90
41720;DHT22;27405;53.316;-6.294;2023-08-17T07:12:38;16.20;99.90
41720;DHT22;27405;53.316;-6.294;2023-08-17T07:15:05;16.30;99.90
41720;DHT22;27405;53.316;-6.294;2023-08-17T07:17:32;16.30;99.90
41720;DHT22;27405;53.316;-6.294;2023-08-17T07:19:59;16.40;99.90
41720;DHT22;27405;53.316;-6.294;2023-08-17T07:22:25;16.50;99.90
41720;DHT22;27405;53.316;-6.294;2023-08-17T07:24:51;16.60;99.90
41720;DHT22;27405;53.316;-6.294;2023-08-17T07:27:17;16.60;99.90
41720;DHT22;27405;53.316;-6.294;2023-08-17T07:29:43;16.70;99.90
41720;DHT22;27405;53.316;-6.294;2023-08-17T07:32:10;16.70;99.90
41720;DHT22;27405;53.316;-6.294;2023-08-17T07:34:36;16.80;99.90
41720;DHT22;27405;53.316;-6.294;2023-08-17T07:37:04;16.80;99.90
41720;DHT22;27405;53.316;-6.294;2023-08-17T07:39:30;16.90;99.90
41720;DHT22;27405;53.316;-6.294;2023-08-17T07:41:57;17.00;99.90
41720;DHT22;27405;53.316;-6.294;2023-08-17T07:44:23;17.00;99.90
41720;DHT22;27405;53.316;-6.294;2023-08-17T07:46:49;17.10;99.90
41720;DHT22;27405;53.316;-6.294;2023-08-17T07:49:15;17.10;99.90
41720;DHT22;27405;53.316;-6.294;2023-08-17T07:51:41;17.20;99.90
41720;DHT22;27405;53.316;-6.294;2023-08-17T07:54:07;17.20;99.90
41720;DHT22;27405;53.316;-6.294;2023-08-17T07:56:34;17.20;99.90
41720;DHT22;27405;53.316;-6.294;2023-08-17T07:59:00;17.30;99.90
41720;DHT22;27405;53.316;-6.294;2023-08-17T08:01:26;17.30;99.90
41720;DHT22;27405;53.316;-6.294;2023-08-17T08:03:51;17.30;99.90
41720;DHT22;27405;53.316;-6.294;2023-08-17T08:06:17;17.40;99.90
41720;DHT22;27405;53.316;-6.294;2023-08-17T08:08:46;17.50;99.90
41720;DHT22;27405;53.316;-6.294;2023-08-17T08:11:12;17.50;99.90
41720;DHT22;27405;53.316;-6.294;2023-08-17T08:13:38;17.60;99.90
41720;DHT22;27405;53.316;-6.294;2023-08-17T08:16:04;17.60;99.90
41720;DHT22;27405;53.316;-6.294;2023-08-17T08:18:30;17.60;99.90
41720;DHT22;27405;53.316;-6.294;2023-08-17T08:20:55;17.70;99.90
41720;DHT22;27405;53.316;-6.294;2023-08-17T08:23:21;17.70;99.90
41720;DHT22;27405;53.316;-6.294;2023-08-17T08:25:47;17.70;99.90
41720;DHT22;27405;53.316;-6.294;2023-08-17T08:28:13;17.80;99.90
41720;DHT22;27405;53.316;-6.294;2023-08-17T08:30:39;17.90;99.90
41720;DHT22;27405;53.316;-6.294;2023-08-17T08:33:05;17.90;99.90
41720;DHT22;27405;53.316;-6.294;2023-08-17T08:35:31;18.00;99.90
41720;DHT22;27405;53.316;-6.294;2023-08-17T08:37:59;18.00;99.90
41720;DHT22;27405;53.316;-6.294;2023-08-17T08:40:29;18.10;99.90
41720;DHT22;27405;53.316;-6.294;2023-08-17T08:42:57;18.10;99.90
41720;DHT22;27405;53.316;-6.294;2023-08-17T08:45:23;18.20;99.90
41720;DHT22;27405;53.316;-6.294;2023-08-17T08:47:51;18.30;99.90
41720;DHT22;27405;53.316;-6.294;2023-08-17T08:50:19;18.30;99.90
41720;DHT22;27405;53.316;-6.294;2023-08-17T08:52:49;18.40;99.90
41720;DHT22;27405;53.316;-6.294;2023-08-17T08:55:18;18.50;99.90
41720;DHT22;27405;53.316;-6.294;2023-08-17T08:57:44;18.50;99.90
41720;DHT22;27405;53.316;-6.294;2023-08-17T09:00:12;18.60;99.90
41720;DHT22;27405;53.316;-6.294;2023-08-17T09:02:38;18.60;99.90
41720;DHT22;27405;53.316;-6.294;2023-08-17T09:05:06;18.70;99.90
41720;DHT22;27405;53.316;-6.294;2023-08-17T09:07:34;18.80;99.90
41720;DHT22;27405;53.316;-6.294;2023-08-17T09:10:02;18.80;99.90
41720;DHT22;27405;53.316;-6.294;2023-08-17T09:12:29;18.90;99.90
41720;DHT22;27405;53.316;-6.294;2023-08-17T09:14:56;18.90;99.90
41720;DHT22;27405;53.316;-6.294;2023-08-17T09:17:25;19.10;99.90
41720;DHT22;27405;53.316;-6.294;2023-08-17T09:19:52;19.10;99.90
41720;DHT22;27405;53.316;-6.294;2023-08-17T09:22:43;19.20;99.90
41720;DHT22;27405;53.316;-6.294;2023-08-17T09:25:10;19.30;99.90
41720;DHT22;27405;53.316;-6.294;2023-08-17T09:27:37;19.40;99.90
41720;DHT22;27405;53.316;-6.294;2023-08-17T09:30:05;19.40;99.90
41720;DHT22;27405;53.316;-6.294;2023-08-17T09:32:32;19.50;99.90
41720;DHT22;27405;53.316;-6.294;2023-08-17T09:35:02;19.50;99.90
41720;DHT22;27405;53.316;-6.294;2023-08-17T09:37:30;19.60;99.90
41720;DHT22;27405;53.316;-6.294;2023-08-17T09:39:56;19.60;99.90
41720;DHT22;27405;53.316;-6.294;2023-08-17T09:42:22;19.60;99.90
41720;DHT22;27405;53.316;-6.294;2023-08-17T09:44:51;19.70;99.90
41720;DHT22;27405;53.316;-6.294;2023-08-17T09:47:18;19.80;99.90
41720;DHT22;27405;53.316;-6.294;2023-08-17T09:49:53;19.90;99.90
41720;DHT22;27405;53.316;-6.294;2023-08-17T09:52:23;20.00;99.90
41720;DHT22;27405;53.316;-6.294;2023-08-17T09:54:52;20.00;99.90
41720;DHT22;27405;53.316;-6.294;2023-08-17T09:57:20;20.00;99.90
41720;DHT22;27405;53.316;-6.294;2023-08-17T09:59:46;20.00;99.90
41720;DHT22;27405;53.316;-6.294;2023-08-17T10:02:18;20.00;99.90
41720;DHT22;27405;53.316;-6.294;2023-08-17T10:04:50;20.00;99.90
41720;DHT22;27405;53.316;-6.294;2023-08-17T10:07:19;20.10;99.90
41720;DHT22;27405;53.316;-6.294;2023-08-17T10:09:51;20.20;99.90
41720;DHT22;27405;53.316;-6.294;2023-08-17T10:12:23;20.20;99.90
41720;DHT22;27405;53.316;-6.294;2023-08-17T10:14:59;20.30;99.90
41720;DHT22;27405;53.316;-6.294;2023-08-17T10:20:59;20.30;99.90
41720;DHT22;27405;53.316;-6.294;2023-08-17T10:23:28;20.40;99.90
41720;DHT22;27405;53.316;-6.294;2023-08-17T10:25:55;20.40;99.90
41720;DHT22;27405;53.316;-6.294;2023-08-17T10:28:24;20.40;99.90
41720;DHT22;27405;53.316;-6.294;2023-08-17T10:30:51;20.40;99.90
41720;DHT22;27405;53.316;-6.294;2023-08-17T10:33:18;20.50;99.90
41720;DHT22;27405;53.316;-6.294;2023-08-17T10:35:44;20.60;99.90
41720;DHT22;27405;53.316;-6.294;2023-08-17T10:38:11;20.70;99.90
41720;DHT22;27405;53.316;-6.294;2023-08-17T10:40:40;20.80;99.90
41720;DHT22;27405;53.316;-6.294;2023-08-17T10:43:07;20.90;99.90
41720;DHT22;27405;53.316;-6.294;2023-08-17T10:45:34;21.00;99.90
41720;DHT22;27405;53.316;-6.294;2023-08-17T10:50:31;21.30;99.90
41720;DHT22;27405;53.316;-6.294;2023-08-17T10:53:04;21.40;99.90
41720;DHT22;27405;53.316;-6.294;2023-08-17T10:55:41;21.40;99.90
41720;DHT22;27405;53.316;-6.294;2023-08-17T10:58:09;21.50;99.90
41720;DHT22;27405;53.316;-6.294;2023-08-17T11:00:38;21.50;99.90
41720;DHT22;27405;53.316;-6.294;2023-08-17T11:03:08;21.60;99.90
41720;DHT22;27405;53.316;-6.294;2023-08-17T11:05:45;21.60;99.90
41720;DHT22;27405;53.316;-6.294;2023-08-17T11:08:32;21.60;99.90
41720;DHT22;27405;53.316;-6.294;2023-08-17T11:13:33;21.60;99.80
41720;DHT22;27405;53.316;-6.294;2023-08-17T11:16:01;21.50;99.80
41720;DHT22;27405;53.316;-6.294;2023-08-17T11:18:27;21.50;99.80
41720;DHT22;27405;53.316;-6.294;2023-08-17T11:20:54;21.50;99.70
41720;DHT22;27405;53.316;-6.294;2023-08-17T11:23:21;21.40;99.70
41720;DHT22;27405;53.316;-6.294;2023-08-17T11:25:48;21.40;99.60
41720;DHT22;27405;53.316;-6.294;2023-08-17T11:28:15;21.40;99.50
41720;DHT22;27405;53.316;-6.294;2023-08-17T11:30:41;21.40;99.30
41720;DHT22;27405;53.316;-6.294;2023-08-17T11:33:08;21.40;99.30
41720;DHT22;27405;53.316;-6.294;2023-08-17T11:35:38;21.50;99.10
41720;DHT22;27405;53.316;-6.294;2023-08-17T11:38:05;21.50;98.70
41720;DHT22;27405;53.316;-6.294;2023-08-17T11:40:32;21.60;98.60
41720;DHT22;27405;53.316;-6.294;2023-08-17T11:42:58;21.70;98.40
41720;DHT22;27405;53.316;-6.294;2023-08-17T11:45:24;21.80;98.20
41720;DHT22;27405;53.316;-6.294;2023-08-17T11:47:51;21.90;97.90
41720;DHT22;27405;53.316;-6.294;2023-08-17T11:50:18;22.10;97.60
41720;DHT22;27405;53.316;-6.294;2023-08-17T11:52:44;22.20;97.30
41720;DHT22;27405;53.316;-6.294;2023-08-17T11:55:10;22.30;97.10
41720;DHT22;27405;53.316;-6.294;2023-08-17T11:57:36;22.40;96.90
41720;DHT22;27405;53.316;-6.294;2023-08-17T12:00:05;22.40;96.70
41720;DHT22;27405;53.316;-6.294;2023-08-17T12:02:38;22.40;96.50
41720;DHT22;27405;53.316;-6.294;2023-08-17T12:05:08;22.50;96.50
41720;DHT22;27405;53.316;-6.294;2023-08-17T12:07:35;22.60;96.40
41720;DHT22;27405;53.316;-6.294;2023-08-17T12:10:04;22.60;96.20
41720;DHT22;27405;53.316;-6.294;2023-08-17T12:12:30;22.60;96.20
41720;DHT22;27405;53.316;-6.294;2023-08-17T12:14:57;22.50;96.20
41720;DHT22;27405;53.316;-6.294;2023-08-17T12:17:24;22.50;96.40
41720;DHT22;27405;53.316;-6.294;2023-08-17T12:19:54;22.50;96.40
41720;DHT22;27405;53.316;-6.294;2023-08-17T12:22:23;22.40;96.40
41720;DHT22;27405;53.316;-6.294;2023-08-17T12:24:50;22.40;96.40
41720;DHT22;27405;53.316;-6.294;2023-08-17T12:27:18;22.40;96.40
41720;DHT22;27405;53.316;-6.294;2023-08-17T12:29:48;22.40;96.30
41720;DHT22;27405;53.316;-6.294;2023-08-17T12:32:17;22.40;96.20
41720;DHT22;27405;53.316;-6.294;2023-08-17T12:34:43;22.40;96.20
41720;DHT22;27405;53.316;-6.294;2023-08-17T12:37:11;22.50;96.80
41720;DHT22;27405;53.316;-6.294;2023-08-17T12:39:38;22.50;96.40
41720;DHT22;27405;53.316;-6.294;2023-08-17T12:42:05;22.50;96.40
41720;DHT22;27405;53.316;-6.294;2023-08-17T12:44:31;22.60;96.40
41720;DHT22;27405;53.316;-6.294;2023-08-17T12:46:58;22.60;96.50
41720;DHT22;27405;53.316;-6.294;2023-08-17T12:49:24;22.60;96.60
41720;DHT22;27405;53.316;-6.294;2023-08-17T12:51:50;22.70;96.70
41720;DHT22;27405;53.316;-6.294;2023-08-17T12:54:17;22.80;96.50
41720;DHT22;27405;53.316;-6.294;2023-08-17T12:56:44;22.80;96.40
41720;DHT22;27405;53.316;-6.294;2023-08-17T12:59:12;22.70;96.20
41720;DHT22;27405;53.316;-6.294;2023-08-17T13:01:40;22.70;96.30
41720;DHT22;27405;53.316;-6.294;2023-08-17T13:04:07;22.80;96.30
41720;DHT22;27405;53.316;-6.294;2023-08-17T13:06:33;22.80;96.40
41720;DHT22;27405;53.316;-6.294;2023-08-17T13:08:59;22.90;96.30
41720;DHT22;27405;53.316;-6.294;2023-08-17T13:11:25;23.00;96.00
41720;DHT22;27405;53.316;-6.294;2023-08-17T13:13:51;23.00;95.90
41720;DHT22;27405;53.316;-6.294;2023-08-17T13:16:18;23.00;95.90
41720;DHT22;27405;53.316;-6.294;2023-08-17T13:18:44;23.10;95.80
41720;DHT22;27405;53.316;-6.294;2023-08-17T13:21:10;23.10;95.80
41720;DHT22;27405;53.316;-6.294;2023-08-17T13:23:36;23.20;95.60
41720;DHT22;27405;53.316;-6.294;2023-08-17T13:26:02;23.20;95.50
41720;DHT22;27405;53.316;-6.294;2023-08-17T13:28:28;23.20;95.30
41720;DHT22;27405;53.316;-6.294;2023-08-17T13:30:54;23.20;95.30
41720;DHT22;27405;53.316;-6.294;2023-08-17T13:33:20;23.30;95.50
41720;DHT22;27405;53.316;-6.294;2023-08-17T13:35:46;23.50;95.50
41720;DHT22;27405;53.316;-6.294;2023-08-17T13:38:12;23.60;95.20
41720;DHT22;27405;53.316;-6.294;2023-08-17T13:40:38;23.80;94.90
41720;DHT22;27405;53.316;-6.294;2023-08-17T13:43:05;23.90;94.60
41720;DHT22;27405;53.316;-6.294;2023-08-17T13:45:38;24.10;94.60
41720;DHT22;27405;53.316;-6.294;2023-08-17T13:48:08;24.10;94.30
41720;DHT22;27405;53.316;-6.294;2023-08-17T13:50:37;24.20;94.30
41720;DHT22;27405;53.316;-6.294;2023-08-17T13:53:03;24.30;94.20
41720;DHT22;27405;53.316;-6.294;2023-08-17T13:55:30;24.30;93.90
41720;DHT22;27405;53.316;-6.294;2023-08-17T13:57:57;24.30;93.70
41720;DHT22;27405;53.316;-6.294;2023-08-17T14:00:24;24.30;93.60
41720;DHT22;27405;53.316;-6.294;2023-08-17T14:02:50;24.20;93.60
41720;DHT22;27405;53.316;-6.294;2023-08-17T14:05:16;24.10;93.60
41720;DHT22;27405;53.316;-6.294;2023-08-17T14:07:42;24.20;93.60
41720;DHT22;27405;53.316;-6.294;2023-08-17T14:10:09;24.20;93.40
41720;DHT22;27405;53.316;-6.294;2023-08-17T14:12:35;24.30;93.40
41720;DHT22;27405;53.316;-6.294;2023-08-17T14:15:01;24.20;93.30
41720;DHT22;27405;53.316;-6.294;2023-08-17T14:17:28;24.20;93.30
41720;DHT22;27405;53.316;-6.294;2023-08-17T14:19:54;24.20;93.40
41720;DHT22;27405;53.316;-6.294;2023-08-17T14:22:22;24.30;93.50
41720;DHT22;27405;53.316;-6.294;2023-08-17T14:24:49;24.40;93.50
41720;DHT22;27405;53.316;-6.294;2023-08-17T14:27:15;24.60;93.30
41720;DHT22;27405;53.316;-6.294;2023-08-17T14:29:41;24.70;93.10
41720;DHT22;27405;53.316;-6.294;2023-08-17T14:32:06;24.90;93.10
41720;DHT22;27405;53.316;-6.294;2023-08-17T14:34:32;24.90;92.80
41720;DHT22;27405;53.316;-6.294;2023-08-17T14:36:59;24.90;92.60
41720;DHT22;27405;53.316;-6.294;2023-08-17T14:39:25;24.80;92.70
41720;DHT22;27405;53.316;-6.294;2023-08-17T14:41:51;24.80;92.80
41720;DHT22;27405;53.316;-6.294;2023-08-17T14:44:18;24.80;92.90
41720;DHT22;27405;53.316;-6.294;2023-08-17T14:46:44;24.80;92.90
41720;DHT22;27405;53.316;-6.294;2023-08-17T14:49:10;24.70;92.70
41720;DHT22;27405;53.316;-6.294;2023-08-17T14:51:40;24.50;92.80
41720;DHT22;27405;53.316;-6.294;2023-08-17T14:54:08;24.30;92.90
41720;DHT22;27405;53.316;-6.294;2023-08-17T14:56:34;24.10;93.10
41720;DHT22;27405;53.316;-6.294;2023-08-17T14:59:00;23.80;93.40
41720;DHT22;27405;53.316;-6.294;2023-08-17T15:01:28;23.60;93.80
41720;DHT22;27405;53.316;-6.294;2023-08-17T15:03:56;23.60;94.10
41720;DHT22;27405;53.316;-6.294;2023-08-17T15:06:22;23.60;94.20
41720;DHT22;27405;53.316;-6.294;2023-08-17T15:08:54;23.70;94.20
41720;DHT22;27405;53.316;-6.294;2023-08-17T15:11:20;23.70;94.20
41720;DHT22;27405;53.316;-6.294;2023-08-17T15:13:46;23.60;94.20
41720;DHT22;27405;53.316;-6.294;2023-08-17T15:16:12;23.60;94.40
41720;DHT22;27405;53.316;-6.294;2023-08-17T15:18:39;23.80;94.60
41720;DHT22;27405;53.316;-6.294;2023-08-17T15:21:06;24.00;94.60
41720;DHT22;27405;53.316;-6.294;2023-08-17T15:23:32;24.30;94.20
41720;DHT22;27405;53.316;-6.294;2023-08-17T15:25:58;24.40;93.80
41720;DHT22;27405;53.316;-6.294;2023-08-17T15:28:24;24.60;93.80
41720;DHT22;27405;53.316;-6.294;2023-08-17T15:31:00;25.00;93.60
41720;DHT22;27405;53.316;-6.294;2023-08-17T15:33:28;25.10;93.00
41720;DHT22;27405;53.316;-6.294;2023-08-17T15:35:55;24.90;92.90
41720;DHT22;27405;53.316;-6.294;2023-08-17T15:38:23;24.60;93.00
41720;DHT22;27405;53.316;-6.294;2023-08-17T15:40:50;24.40;93.20
41720;DHT22;27405;53.316;-6.294;2023-08-17T15:43:17;24.20;93.40
41720;DHT22;27405;53.316;-6.294;2023-08-17T15:45:43;24.00;93.70
41720;DHT22;27405;53.316;-6.294;2023-08-17T15:48:09;23.80;94.00
41720;DHT22;27405;53.316;-6.294;2023-08-17T15:50:35;23.60;94.00
41720;DHT22;27405;53.316;-6.294;2023-08-17T15:53:02;23.50;94.10
41720;DHT22;27405;53.316;-6.294;2023-08-17T15:55:29;23.20;94.50